sensor_id;sensor_type;location;lat;lon;timestamp;temperature;humidity
698;DHT22;331;48.414;9.938;2022-09-28T00:00:53;9.50;99.90
698;DHT22;331;48.414;9.938;2022-09-28T00:03:20;9.50;99.90
698;DHT22;331;48.414;9.938;2022-09-28T00:08:15;9.50;99.90
698;DHT22;331;48.414;9.938;2022-09-28T00:10:42;9.50;99.90
698;DHT22;331;48.414;9.938;2022-09-28T00:13:10;9.50;99.90
698;DHT22;331;48.414;9.938;2022-09-28T00:15:37;9.50;99.90
698;DHT22;331;48.414;9.938;2022-09-28T00:18:04;9.50;99.90
698;DHT22;331;48.414;9.938;2022-09-28T00:20:31;9.50;99.90
698;DHT22;331;48.414;9.938;2022-09-28T00:22:58;9.50;99.90
698;DHT22;331;48.414;9.938;2022-09-28T00:25:26;9.50;99.90
698;DHT22;331;48.414;9.938;2022-09-28T00:27:54;9.50;99.90
698;DHT22;331;48.414;9.938;2022-09-28T00:30:22;9.50;99.90
698;DHT22;331;48.414;9.938;2022-09-28T00:32:49;9.50;99.90
698;DHT22;331;48.414;9.938;2022-09-28T00:35:17;9.50;99.90
698;DHT22;331;48.414;9.938;2022-09-28T00:37:44;9.50;99.90
698;DHT22;331;48.414;9.938;2022-09-28T00:40:12;9.50;99.90
698;DHT22;331;48.414;9.938;2022-09-28T00:42:40;9.50;99.90
698;DHT22;331;48.414;9.938;2022-09-28T00:45:07;9.50;99.90
698;DHT22;331;48.414;9.938;2022-09-28T00:47:36;9.50;99.90
698;DHT22;331;48.414;9.938;2022-09-28T00:50:06;9.50;99.90
698;DHT22;331;48.414;9.938;2022-09-28T00:52:38;9.50;99.90
698;DHT22;331;48.414;9.938;2022-09-28T00:55:06;9.50;99.90
698;DHT22;331;48.414;9.938;2022-09-28T00:57:34;9.50;99.90
698;DHT22;331;48.414;9.938;2022-09-28T01:00:03;9.50;99.90
698;DHT22;331;48.414;9.938;2022-09-28T01:02:30;9.50;99.90
698;DHT22;331;48.414;9.938;2022-09-28T01:05:00;9.50;99.90
698;DHT22;331;48.414;9.938;2022-09-28T01:07:29;9.50;99.90
698;DHT22;331;48.414;9.938;2022-09-28T01:09:57;9.50;99.90
698;DHT22;331;48.414;9.938;2022-09-28T01:12:24;9.50;99.90
698;DHT22;331;48.414;9.938;2022-09-28T01:14:50;9.50;99.90
698;DHT22;331;48.414;9.938;2022-09-28T01:17:20;9.50;99.90
698;DHT22;331;48.414;9.938;2022-09-28T01:20:01;9.50;99.90
698;DHT22;331;48.414;9.938;2022-09-28T01:25:29;9.50;99.90
698;DHT22;331;48.414;9.938;2022-09-28T01:28:03;9.50;99.90
698;DHT22;331;48.414;9.938;2022-09-28T01:30:30;9.50;99.90
698;DHT22;331;48.414;9.938;2022-09-28T01:33:02;9.50;99.90
698;DHT22;331;48.414;9.938;2022-09-28T01:35:31;9.50;99.90
698;DHT22;331;48.414;9.938;2022-09-28T01:38:00;9.50;99.90
698;DHT22;331;48.414;9.938;2022-09-28T01:40:29;9.50;99.90
698;DHT22;331;48.414;9.938;2022-09-28T01:43:01;9.50;99.90
698;DHT22;331;48.414;9.938;2022-09-28T01:45:30;9.50;99.90
698;DHT22;331;48.414;9.938;2022-09-28T01:47:59;9.50;99.90
698;DHT22;331;48.414;9.938;2022-09-28T01:50:28;9.50;99.90
698;DHT22;331;48.414;9.938;2022-09-28T01:53:00;9.50;99.90
698;DHT22;331;48.414;9.938;2022-09-28T01:55:31;9.50;99.90
698;DHT22;331;48.414;9.938;2022-09-28T01:58:01;9.50;99.90
698;DHT22;331;48.414;9.938;2022-09-28T02:00:30;9.50;99.90
698;DHT22;331;48.414;9.938;2022-09-28T02:02:59;9.50;99.90
698;DHT22;331;48.414;9.938;2022-09-28T02:05:36;9.50;99.90
698;DHT22;331;48.414;9.938;2022-09-28T02:08:05;9.50;99.90
698;DHT22;331;48.414;9.938;2022-09-28T02:10:36;9.50;99.90
698;DHT22;331;48.414;9.938;2022-09-28T02:13:07;9.50;99.90
698;DHT22;331;48.414;9.938;2022-09-28T02:15:39;9.50;99.90
698;DHT22;331;48.414;9.938;2022-09-28T02:18:07;9.50;99.90
698;DHT22;331;48.414;9.938;2022-09-28T02:20:36;9.50;99.90
698;DHT22;331;48.414;9.938;2022-09-28T02:23:04;9.50;99.90
698;DHT22;331;48.414;9.938;2022-09-28T02:25:33;9.50;99.90
698;DHT22;331;48.414;9.938;2022-09-28T02:28:03;9.50;99.90
698;DHT22;331;48.414;9.938;2022-09-28T02:30:30;9.50;99.90
698;DHT22;331;48.414;9.938;2022-09-28T02:33:00;9.50;99.90
698;DHT22;331;48.414;9.938;2022-09-28T02:35:28;9.50;99.90
698;DHT22;331;48.414;9.938;2022-09-28T02:37:56;9.50;99.90
698;DHT22;331;48.414;9.938;2022-09-28T02:40:28;9.50;99.90
698;DHT22;331;48.414;9.938;2022-09-28T02:42:58;9.50;99.90
698;DHT22;331;48.414;9.938;2022-09-28T02:45:43;9.50;99.90
698;DHT22;331;48.414;9.938;2022-09-28T02:48:18;9.50;99.90
698;DHT22;331;48.414;9.938;2022-09-28T02:50:49;9.50;99.90
698;DHT22;331;48.414;9.938;2022-09-28T02:53:23;9.50;99.90
698;DHT22;331;48.414;9.938;2022-09-28T02:55:54;9.40;99.90
698;DHT22;331;48.414;9.938;2022-09-28T02:58:29;9.50;99.90
698;DHT22;331;48.414;9.938;2022-09-28T03:01:00;9.50;99.90
698;DHT22;331;48.414;9.938;2022-09-28T03:03:32;9.50;99.90
698;DHT22;331;48.414;9.938;2022-09-28T03:06:02;9.50;99.90
698;DHT22;331;48.414;9.938;2022-09-28T03:08:37;9.50;99.90
698;DHT22;331;48.414;9.938;2022-09-28T03:11:10;9.50;99.90
698;DHT22;331;48.414;9.938;2022-09-28T03:13:38;9.50;99.90
698;DHT22;331;48.414;9.938;2022-09-28T03:16:07;9.50;99.90
698;DHT22;331;48.414;9.938;2022-09-28T03:18:35;9.50;99.90
698;DHT22;331;48.414;9.938;2022-09-28T03:21:03;9.50;99.90
698;DHT22;331;48.414;9.938;2022-09-28T03:23:30;9.50;99.90
698;DHT22;331;48.414;9.938;2022-09-28T03:25:59;9.50;99.90
698;DHT22;331;48.414;9.938;2022-09-28T03:28:26;9.50;99.90
698;DHT22;331;48.414;9.938;2022-09-28T03:30:54;9.50;99.90
698;DHT22;331;48.414;9.938;2022-09-28T03:33:21;9.50;99.90
698;DHT22;331;48.414;9.938;2022-09-28T03:35:52;9.50;99.90
698;DHT22;331;48.414;9.938;2022-09-28T03:38:19;9.50;99.90
698;DHT22;331;48.414;9.938;2022-09-28T03:40:51;9.50;99.90
698;DHT22;331;48.414;9.938;2022-09-28T03:43:19;9.50;99.90
698;DHT22;331;48.414;9.938;2022-09-28T03:45:50;9.50;99.90
698;DHT22;331;48.414;9.938;2022-09-28T03:48:20;9.50;99.90
698;DHT22;331;48.414;9.938;2022-09-28T03:50:54;9.50;99.90
698;DHT22;331;48.414;9.938;2022-09-28T03:53:22;9.50;99.90
698;DHT22;331;48.414;9.938;2022-09-28T03:55:49;9.50;99.90
698;DHT22;331;48.414;9.938;2022-09-28T03:58:18;9.50;99.90
698;DHT22;331;48.414;9.938;2022-09-28T04:00:45;9.50;99.90
698;DHT22;331;48.414;9.938;2022-09-28T04:03:15;9.50;99.90
698;DHT22;331;48.414;9.938;2022-09-28T04:05:50;9.50;99.90
698;DHT22;331;48.414;9.938;2022-09-28T04:08:21;9.50;99.90
698;DHT22;331;48.414;9.938;2022-09-28T04:10:53;9.50;99.90
698;DHT22;331;48.414;9.938;2022-09-28T04:13:24;9.50;99.90
698;DHT22;331;48.414;9.938;2022-09-28T04:15:51;9.50;99.90
698;DHT22;331;48.414;9.938;2022-09-28T04:18:18;9.50;99.90
698;DHT22;331;48.414;9.938;2022-09-28T04:21:06;9.60;99.90
698;DHT22;331;48.414;9.938;2022-09-28T04:23:40;9.60;99.90
698;DHT22;331;48.414;9.938;2022-09-28T04:26:18;9.50;99.90
698;DHT22;331;48.414;9.938;2022-09-28T04:28:46;9.60;99.90
698;DHT22;331;48.414;9.938;2022-09-28T04:31:38;9.50;99.90
698;DHT22;331;48.414;9.938;2022-09-28T04:34:17;9.60;99.90
698;DHT22;331;48.414;9.938;2022-09-28T04:36:54;9.60;99.90
698;DHT22;331;48.414;9.938;2022-09-28T04:39:25;9.60;99.90
698;DHT22;331;48.414;9.938;2022-09-28T04:41:54;9.50;99.90
698;DHT22;331;48.414;9.938;2022-09-28T04:44:21;9.50;99.90
698;DHT22;331;48.414;9.938;2022-09-28T04:46:55;9.50;99.90
698;DHT22;331;48.414;9.938;2022-09-28T04:49:30;9.60;99.90
698;DHT22;331;48.414;9.938;2022-09-28T04:52:38;9.50;99.90
698;DHT22;331;48.414;9.938;2022-09-28T04:55:09;9.50;99.90
698;DHT22;331;48.414;9.938;2022-09-28T04:57:40;9.60;99.90
698;DHT22;331;48.414;9.938;2022-09-28T05:00:08;9.60;99.90
698;DHT22;331;48.414;9.938;2022-09-28T05:02:36;9.50;99.90
698;DHT22;331;48.414;9.938;2022-09-28T05:05:25;9.60;99.90
698;DHT22;331;48.414;9.938;2022-09-28T05:08:27;9.50;99.90
698;DHT22;331;48.414;9.938;2022-09-28T05:10:59;9.50;99.90
698;DHT22;331;48.414;9.938;2022-09-28T05:13:26;9.50;99.90
698;DHT22;331;48.414;9.938;2022-09-28T05:15:54;9.60;99.90
698;DHT22;331;48.414;9.938;2022-09-28T05:18:22;9.60;99.90
698;DHT22;331;48.414;9.938;2022-09-28T05:21:00;9.60;99.90
698;DHT22;331;48.414;9.938;2022-09-28T05:23:26;9.60;99.90
698;DHT22;331;48.414;9.938;2022-09-28T05:25:55;9.60;99.90
698;DHT22;331;48.414;9.938;2022-09-28T05:28:26;9.60;99.90
698;DHT22;331;48.414;9.938;2022-09-28T05:31:17;9.60;99.90
698;DHT22;331;48.414;9.938;2022-09-28T05:34:10;9.60;99.90
698;DHT22;331;48.414;9.938;2022-09-28T05:36:37;9.60;99.90
698;DHT22;331;48.414;9.938;2022-09-28T05:39:04;9.60;99.90
698;DHT22;331;48.414;9.938;2022-09-28T05:41:31;9.60;99.90
698;DHT22;331;48.414;9.938;2022-09-28T05:44:00;9.60;99.90
698;DHT22;331;48.414;9.938;2022-09-28T05:46:28;9.60;99.90
698;DHT22;331;48.414;9.938;2022-09-28T05:48:58;9.60;99.90
698;DHT22;331;48.414;9.938;2022-09-28T05:51:26;9.60;99.90
698;DHT22;331;48.414;9.938;2022-09-28T05:53:53;9.60;99.90
698;DHT22;331;48.414;9.938;2022-09-28T05:56:20;9.60;99.90
698;DHT22;331;48.414;9.938;2022-09-28T05:58:49;9.60;99.90
698;DHT22;331;48.414;9.938;2022-09-28T06:01:19;9.60;99.90
698;DHT22;331;48.414;9.938;2022-09-28T06:03:47;9.60;99.90
698;DHT22;331;48.414;9.938;2022-09-28T06:06:16;9.60;99.90
698;DHT22;331;48.414;9.938;2022-09-28T06:09:01;9.60;99.90
698;DHT22;331;48.414;9.938;2022-09-28T06:11:46;9.60;99.90
698;DHT22;331;48.414;9.938;2022-09-28T06:14:30;9.60;99.90
698;DHT22;331;48.414;9.938;2022-09-28T06:16:58;9.60;99.90
698;DHT22;331;48.414;9.938;2022-09-28T06:19:25;9.60;99.90
698;DHT22;331;48.414;9.938;2022-09-28T06:22:05;9.60;99.90
698;DHT22;331;48.414;9.938;2022-09-28T06:24:41;9.60;99.90
698;DHT22;331;48.414;9.938;2022-09-28T06:27:08;9.60;99.90
698;DHT22;331;48.414;9.938;2022-09-28T06:29:35;9.60;99.90
698;DHT22;331;48.414;9.938;2022-09-28T06:32:03;9.60;99.90
698;DHT22;331;48.414;9.938;2022-09-28T06:34:31;9.60;99.90
698;DHT22;331;48.414;9.938;2022-09-28T06:36:59;9.60;99.90
698;DHT22;331;48.414;9.938;2022-09-28T06:39:29;9.60;99.90
698;DHT22;331;48.414;9.938;2022-09-28T06:41:56;9.60;99.90
698;DHT22;331;48.414;9.938;2022-09-28T06:44:48;9.60;99.90
698;DHT22;331;48.414;9.938;2022-09-28T06:47:37;9.60;99.90
698;DHT22;331;48.414;9.938;2022-09-28T06:50:15;9.60;99.90
698;DHT22;331;48.414;9.938;2022-09-28T06:53:00;9.60;99.90
698;DHT22;331;48.414;9.938;2022-09-28T06:55:47;9.60;99.90
698;DHT22;331;48.414;9.938;2022-09-28T06:58:14;9.60;99.90
698;DHT22;331;48.414;9.938;2022-09-28T07:00:42;9.60;99.90
698;DHT22;331;48.414;9.938;2022-09-28T07:03:11;9.60;99.90
698;DHT22;331;48.414;9.938;2022-09-28T07:05:59;9.60;99.90
698;DHT22;331;48.414;9.938;2022-09-28T07:08:32;9.60;99.90
698;DHT22;331;48.414;9.938;2022-09-28T07:11:35;9.60;99.90
698;DHT22;331;48.414;9.938;2022-09-28T07:14:09;9.60;99.90
698;DHT22;331;48.414;9.938;2022-09-28T07:16:37;9.60;99.90
698;DHT22;331;48.414;9.938;2022-09-28T07:19:05;9.60;99.90
698;DHT22;331;48.414;9.938;2022-09-28T07:21:32;9.60;99.90
698;DHT22;331;48.414;9.938;2022-09-28T07:24:14;9.50;99.90
698;DHT22;331;48.414;9.938;2022-09-28T07:26:59;9.50;99.90
698;DHT22;331;48.414;9.938;2022-09-28T07:29:44;9.50;99.90
698;DHT22;331;48.414;9.938;2022-09-28T07:32:37;9.50;99.90
698;DHT22;331;48.414;9.938;2022-09-28T07:35:35;9.50;99.90
698;DHT22;331;48.414;9.938;2022-09-28T07:38:02;9.50;99.90
698;DHT22;331;48.414;9.938;2022-09-28T07:40:31;9.50;99.90
698;DHT22;331;48.414;9.938;2022-09-28T07:43:16;9.50;99.90
698;DHT22;331;48.414;9.938;2022-09-28T07:45:46;9.50;99.90
698;DHT22;331;48.414;9.938;2022-09-28T07:48:14;9.50;99.90
698;DHT22;331;48.414;9.938;2022-09-28T07:51:01;9.50;99.90
698;DHT22;331;48.414;9.938;2022-09-28T07:53:39;9.50;99.90
698;DHT22;331;48.414;9.938;2022-09-28T07:56:26;9.50;99.90
698;DHT22;331;48.414;9.938;2022-09-28T07:59:02;9.50;99.90
698;DHT22;331;48.414;9.938;2022-09-28T08:01:41;9.50;99.90
698;DHT22;331;48.414;9.938;2022-09-28T08:04:10;9.50;99.90
698;DHT22;331;48.414;9.938;2022-09-28T08:06:41;9.50;99.90
698;DHT22;331;48.414;9.938;2022-09-28T08:09:11;9.50;99.90
698;DHT22;331;48.414;9.938;2022-09-28T08:12:07;9.50;99.90
698;DHT22;331;48.414;9.938;2022-09-28T08:14:51;9.50;99.90
698;DHT22;331;48.414;9.938;2022-09-28T08:17:38;9.50;99.90
698;DHT22;331;48.414;9.938;2022-09-28T08:20:09;9.50;99.90
698;DHT22;331;48.414;9.938;2022-09-28T08:22:55;9.50;99.90
698;DHT22;331;48.414;9.938;2022-09-28T08:25:28;9.50;99.90
698;DHT22;331;48.414;9.938;2022-09-28T08:27:55;9.50;99.90
698;DHT22;331;48.414;9.938;2022-09-28T08:30:24;9.50;99.90
698;DHT22;331;48.414;9.938;2022-09-28T08:33:06;9.50;99.90
698;DHT22;331;48.414;9.938;2022-09-28T08:35:38;9.50;99.90
698;DHT22;331;48.414;9.938;2022-09-28T08:38:31;9.50;99.90
698;DHT22;331;48.414;9.938;2022-09-28T08:41:17;9.60;99.90
698;DHT22;331;48.414;9.938;2022-09-28T08:44:15;9.60;99.90
698;DHT22;331;48.414;9.938;2022-09-28T08:47:09;9.60;99.90
698;DHT22;331;48.414;9.938;2022-09-28T08:50:21;9.60;99.90
698;DHT22;331;48.414;9.938;2022-09-28T08:53:18;9.60;99.90
698;DHT22;331;48.414;9.938;2022-09-28T08:56:02;9.60;99.90
698;DHT22;331;48.414;9.938;2022-09-28T08:58:31;9.60;99.90
698;DHT22;331;48.414;9.938;2022-09-28T09:00:59;9.60;99.90
698;DHT22;331;48.414;9.938;2022-09-28T09:03:28;9.60;99.90
698;DHT22;331;48.414;9.938;2022-09-28T09:06:21;9.60;99.90
698;DHT22;331;48.414;9.938;2022-09-28T09:08:58;9.60;99.90
698;DHT22;331;48.414;9.938;2022-09-28T09:11:33;9.60;99.90
698;DHT22;331;48.414;9.938;2022-09-28T09:14:07;9.60;99.90
698;DHT22;331;48.414;9.938;2022-09-28T09:16:41;9.60;99.90
698;DHT22;331;48.414;9.938;2022-09-28T09:19:41;9.70;99.90
698;DHT22;331;48.414;9.938;2022-09-28T09:22:26;9.70;99.90
698;DHT22;331;48.414;9.938;2022-09-28T09:24:57;9.70;99.90
698;DHT22;331;48.414;9.938;2022-09-28T09:27:32;9.70;99.90
698;DHT22;331;48.414;9.938;2022-09-28T09:30:04;9.60;99.90
698;DHT22;331;48.414;9.938;2022-09-28T09:32:40;9.70;99.90
698;DHT22;331;48.414;9.938;2022-09-28T09:35:20;9.60;99.90
698;DHT22;331;48.414;9.938;2022-09-28T09:38:05;9.60;99.90
698;DHT22;331;48.414;9.938;2022-09-28T09:40:52;9.70;99.90
698;DHT22;331;48.414;9.938;2022-09-28T09:44:04;9.70;99.90
698;DHT22;331;48.414;9.938;2022-09-28T09:47:00;9.60;99.90
698;DHT22;331;48.414;9.938;2022-09-28T09:49:44;9.60;99.90
698;DHT22;331;48.414;9.938;2022-09-28T09:52:13;9.60;99.90
698;DHT22;331;48.414;9.938;2022-09-28T09:54:45;9.70;99.90
698;DHT22;331;48.414;9.938;2022-09-28T09:57:29;9.70;99.90
698;DHT22;331;48.414;9.938;2022-09-28T10:00:11;9.70;99.90
698;DHT22;331;48.414;9.938;2022-09-28T10:02:50;9.70;99.90
698;DHT22;331;48.414;9.938;2022-09-28T10:05:32;9.60;99.90
698;DHT22;331;48.414;9.938;2022-09-28T10:08:02;9.70;99.90
698;DHT22;331;48.414;9.938;2022-09-28T10:10:32;9.60;99.90
698;DHT22;331;48.414;9.938;2022-09-28T10:13:07;9.60;99.90
698;DHT22;331;48.414;9.938;2022-09-28T10:15:37;9.60;99.90
698;DHT22;331;48.414;9.938;2022-09-28T10:18:26;9.70;99.90
698;DHT22;331;48.414;9.938;2022-09-28T10:21:19;9.70;99.90
698;DHT22;331;48.414;9.938;2022-09-28T10:23:58;9.70;99.90
698;DHT22;331;48.414;9.938;2022-09-28T10:26:29;9.70;99.90
698;DHT22;331;48.414;9.938;2022-09-28T10:28:58;9.70;99.90
698;DHT22;331;48.414;9.938;2022-09-28T10:31:36;9.70;99.90
698;DHT22;331;48.414;9.938;2022-09-28T10:34:09;9.70;99.90
698;DHT22;331;48.414;9.938;2022-09-28T10:36:43;9.70;99.90
698;DHT22;331;48.414;9.938;2022-09-28T10:39:20;9.70;99.90
698;DHT22;331;48.414;9.938;2022-09-28T10:41:49;9.70;99.90
698;DHT22;331;48.414;9.938;2022-09-28T10:44:19;9.70;99.90
698;DHT22;331;48.414;9.938;2022-09-28T10:47:03;9.70;99.90
698;DHT22;331;48.414;9.938;2022-09-28T10:49:38;9.70;99.90
698;DHT22;331;48.414;9.938;2022-09-28T10:52:08;9.70;99.90
698;DHT22;331;48.414;9.938;2022-09-28T10:54:55;9.70;99.90
698;DHT22;331;48.414;9.938;2022-09-28T10:57:25;9.70;99.90
698;DHT22;331;48.414;9.938;2022-09-28T10:59:56;9.70;99.90
698;DHT22;331;48.414;9.938;2022-09-28T11:02:33;9.80;99.90
698;DHT22;331;48.414;9.938;2022-09-28T11:05:05;9.70;99.90
698;DHT22;331;48.414;9.938;2022-09-28T11:07:43;9.80;99.90
698;DHT22;331;48.414;9.938;2022-09-28T12:03:20;9.90;99.90
698;DHT22;331;48.414;9.938;2022-09-28T12:34:24;10.20;99.90
698;DHT22;331;48.414;9.938;2022-09-28T12:36:56;10.20;99.90
698;DHT22;331;48.414;9.938;2022-09-28T12:50:01;10.20;99.90
698;DHT22;331;48.414;9.938;2022-09-28T16:06:39;10.50;99.90
698;DHT22;331;48.414;9.938;2022-09-28T16:21:51;10.50;99.90
698;DHT22;331;48.414;9.938;2022-09-28T16:25:13;10.50;99.90
698;DHT22;331;48.414;9.938;2022-09-28T16:27:42;10.50;99.90
698;DHT22;331;48.414;9.938;2022-09-28T16:33:01;10.50;99.90
698;DHT22;331;48.414;9.938;2022-09-28T17:06:53;10.50;99.90
698;DHT22;331;48.414;9.938;2022-09-28T17:13:52;10.50;99.90
698;DHT22;331;48.414;9.938;2022-09-28T17:16:21;10.50;99.90
698;DHT22;331;48.414;9.938;2022-09-28T17:18:52;10.50;99.90
698;DHT22;331;48.414;9.938;2022-09-28T17:21:21;10.50;99.90
698;DHT22;331;48.414;9.938;2022-09-28T17:23:51;10.50;99.90
698;DHT22;331;48.414;9.938;2022-09-28T17:29:00;10.40;99.90
698;DHT22;331;48.414;9.938;2022-09-28T17:36:44;10.40;99.90
698;DHT22;331;48.414;9.938;2022-09-28T17:39:44;10.40;99.90
698;DHT22;331;48.414;9.938;2022-09-28T17:42:35;10.40;99.90
698;DHT22;331;48.414;9.938;2022-09-28T17:45:28;10.40;99.90
698;DHT22;331;48.414;9.938;2022-09-28T23:13:25;9.50;99.90
698;DHT22;331;48.414;9.938;2022-09-28T23:15:53;9.50;99.90
698;DHT22;331;48.414;9.938;2022-09-28T23:18:20;9.50;99.90
698;DHT22;331;48.414;9.938;2022-09-28T23:20:51;9.50;99.90
698;DHT22;331;48.414;9.938;2022-09-28T23:23:17;9.50;99.90
698;DHT22;331;48.414;9.938;2022-09-28T23:25:44;9.40;99.90
698;DHT22;331;48.414;9.938;2022-09-28T23:28:11;9.40;99.90
698;DHT22;331;48.414;9.938;2022-09-28T23:30:39;9.50;99.90
698;DHT22;331;48.414;9.938;2022-09-28T23:33:08;9.40;99.90
698;DHT22;331;48.414;9.938;2022-09-28T23:35:35;9.40;99.90
698;DHT22;331;48.414;9.938;2022-09-28T23:38:02;9.40;99.90
698;DHT22;331;48.414;9.938;2022-09-28T23:40:28;9.40;99.90
698;DHT22;331;48.414;9.938;2022-09-28T23:42:55;9.40;99.90
698;DHT22;331;48.414;9.938;2022-09-28T23:45:22;9.40;99.90
698;DHT22;331;48.414;9.938;2022-09-28T23:47:50;9.40;99.90
698;DHT22;331;48.414;9.938;2022-09-28T23:50:17;9.40;99.90
698;DHT22;331;48.414;9.938;2022-09-28T23:52:45;9.40;99.90
698;DHT22;331;48.414;9.938;2022-09-28T23:55:33;9.40;99.90
698;DHT22;331;48.414;9.938;2022-09-28T23:58:00;9.40;99.90
